Portada
METAR-TAF:

METAR-TAF

Aeropuertos :

Aeropuerto Touat Cheikh Sidi Mohamed Belkebir

Adrar, Argelia

latitud: 27-53N, longitud: 000-17W, altitud: 263 m

Observación

El informe se hizo hace 28 minutos, a las 15:00 UTC
Viento 12 kt del oeste-suroeste
Temperatura 33°C
Humedad 9%
Presión 1010 hPa
Visibilidad 10 km o más
sin nubes por debajo de 1500 m y sin presencia de cumulonimbus.

METAR: DAUA 011500Z 24012KT CAVOK 33/M04 Q1010

Hora: 16:28 (15:28 UTC)

Pronóstico

El informe se hizo hace 4 horas y 28 minutos, a las 11:00 UTC
Pronóstico válido del 01 a las 12 UTC al 02 a las 12 UTC
Viento 12 kt del suroeste
Visibilidad 10 km o más
sin nubes por debajo de 1500 m y sin presencia de cumulonimbus.
Probabilidad 30% :
Temporalmente
del 01 a las 12 UTC al 01 a las 18 UTC
Viento 15 kt del oeste-suroeste con ráfagas de 25 kt
Visibilidad: 4000 m
Ventisca baja de arena

TAF: DAUA 011100Z 0112/0212 22012KT CAVOK PROB30 TEMPO 0112/0118 24015G25KT 4000 DRSA

Observaciones y pronósticos meteorológicos de más de 4000 aeropuertos (mensajes METAR y TAF).

Los puntos amarillos y rojos representan las estaciones disponibles.

Ponga el ratón en el punto deseado para ver el nombre de la estación.

Haga clic para ver las observaciones y los pronósticos meteorológicos.

Para cambiar el mapa : haga clic en los botones verdes con una cruz de color negro para hacer un zoom, en el botón verde con un guión para alejar o en las flechas verdes para mapas adyacentes.


METAR-TAF: